Time;durP1;ratioP1;P1;durP2;ratioP2;P2;SDS_P1;SDS_P2;PMS_P1;PMS_P2;Temp;Humidity;BMP_temperature;BMP_pressure;BME280_temperature;BME280_humidity;BME280_pressure;Samples;Min_cycle;Max_cycle;Signal;HPM_P1;HPM_P2
2023/09/26 00:01:19;;;;;;;3.00;2.70;;;12.20;89.70;;;;;;947101;145;27358;-80
2023/09/26 00:03:44;;;;;;;2.70;2.50;;;12.20;89.90;;;;;;946904;145;27319;-80
2023/09/26 00:06:19;;;;;;;2.80;2.60;;;12.20;90.10;;;;;;946022;145;27395;-77
2023/09/26 00:08:47;;;;;;;3.47;2.90;;;12.20;90.30;;;;;;947661;145;27470;-76
2023/09/26 00:11:13;;;;;;;2.93;2.53;;;12.20;90.30;;;;;;946236;145;27297;-77
2023/09/26 00:13:39;;;;;;;2.93;2.63;;;12.10;90.50;;;;;;946865;145;27299;-77
2023/09/26 00:16:06;;;;;;;3.60;2.77;;;12.10;90.60;;;;;;946557;145;27303;-77
2023/09/26 00:18:32;;;;;;;3.03;2.40;;;12.10;90.60;;;;;;945680;145;27312;-77
2023/09/26 00:20:59;;;;;;;2.93;2.63;;;12.00;90.80;;;;;;946114;145;27386;-77
2023/09/26 00:23:26;;;;;;;2.77;2.57;;;12.10;91.00;;;;;;946775;145;27418;-77
2023/09/26 00:25:52;;;;;;;2.83;2.50;;;12.00;91.10;;;;;;947792;145;27348;-77
2023/09/26 00:28:19;;;;;;;3.60;2.33;;;12.00;91.30;;;;;;946588;145;27329;-77
2023/09/26 00:30:46;;;;;;;4.43;2.50;;;12.00;91.40;;;;;;945669;145;27360;-77
2023/09/26 00:33:12;;;;;;;3.60;2.70;;;11.90;91.50;;;;;;950936;146;27403;-77
2023/09/26 00:35:38;;;;;;;3.60;2.60;;;11.90;91.70;;;;;;950401;146;27344;-77
2023/09/26 00:38:05;;;;;;;2.50;2.30;;;11.90;91.90;;;;;;949729;149;27816;-77
2023/09/26 00:40:32;;;;;;;3.23;2.33;;;11.90;92.20;;;;;;949602;146;27371;-77
2023/09/26 00:43:01;;;;;;;4.43;2.60;;;11.80;92.30;;;;;;952111;146;27251;-77
2023/09/26 00:45:28;;;;;;;3.47;2.73;;;11.80;92.50;;;;;;950039;146;27617;-76
2023/09/26 00:47:54;;;;;;;2.70;2.43;;;11.80;92.60;;;;;;951988;146;27306;-76
2023/09/26 00:50:22;;;;;;;2.43;2.30;;;11.80;92.90;;;;;;950933;146;27337;-76
2023/09/26 00:52:49;;;;;;;2.90;2.33;;;11.80;93.20;;;;;;951438;149;27384;-76
2023/09/26 00:55:14;;;;;;;2.90;2.70;;;11.70;93.40;;;;;;950637;146;27416;-76
2023/09/26 00:57:41;;;;;;;3.57;2.63;;;11.70;93.70;;;;;;951813;146;27403;-76
2023/09/26 01:00:08;;;;;;;3.00;2.80;;;11.70;93.90;;;;;;951312;146;27444;-76
2023/09/26 01:02:34;;;;;;;3.07;2.87;;;11.70;94.20;;;;;;949836;146;27310;-76
2023/09/26 01:05:01;;;;;;;3.13;2.93;;;11.70;94.40;;;;;;950150;146;27454;-76
2023/09/26 01:07:27;;;;;;;3.30;3.00;;;11.70;94.60;;;;;;950381;146;27263;-76
2023/09/26 01:09:54;;;;;;;3.40;3.10;;;11.70;94.60;;;;;;949707;146;27379;-76
2023/09/26 01:12:20;;;;;;;3.23;2.50;;;11.70;94.80;;;;;;950929;146;27280;-76
2023/09/26 01:14:47;;;;;;;2.70;2.50;;;11.70;95.00;;;;;;950705;147;27347;-76
2023/09/26 01:17:14;;;;;;;2.73;2.53;;;11.70;95.00;;;;;;951554;146;27380;-76
2023/09/26 01:19:40;;;;;;;3.20;2.90;;;11.70;95.30;;;;;;949642;146;27351;-75
2023/09/26 01:22:07;;;;;;;3.83;2.80;;;11.70;95.50;;;;;;950340;146;27237;-75
2023/09/26 01:24:35;;;;;;;2.63;2.43;;;11.70;95.70;;;;;;950373;149;27350;-76
2023/09/26 01:27:00;;;;;;;3.10;2.83;;;11.70;96.00;;;;;;950560;146;27303;-74
2023/09/26 01:29:27;;;;;;;3.70;3.40;;;11.70;96.10;;;;;;950663;149;27420;-74
2023/09/26 01:31:54;;;;;;;3.70;3.07;;;11.70;96.30;;;;;;952014;144;27444;-75
2023/09/26 01:34:20;;;;;;;3.87;2.97;;;11.70;96.30;;;;;;967809;144;28699;-75
2023/09/26 01:36:46;;;;;;;3.47;3.17;;;11.70;96.60;;;;;;965364;144;27724;-74
2023/09/26 01:39:13;;;;;;;4.93;3.13;;;11.70;96.80;;;;;;965804;144;27354;-74
2023/09/26 01:41:41;;;;;;;3.87;3.10;;;11.70;97.10;;;;;;963398;144;27338;-77
2023/09/26 01:44:06;;;;;;;3.70;3.10;;;11.70;97.40;;;;;;964430;144;27325;-74
2023/09/26 01:46:33;;;;;;;3.10;2.90;;;11.70;97.50;;;;;;964977;144;27342;-75
2023/09/26 01:48:59;;;;;;;3.07;2.87;;;11.70;97.80;;;;;;967024;144;27627;-74
2023/09/26 01:51:26;;;;;;;2.93;2.73;;;11.70;98.10;;;;;;964625;144;27271;-75
2023/09/26 01:53:52;;;;;;;3.90;3.60;;;11.70;98.20;;;;;;964810;144;27395;-76
2023/09/26 01:56:19;;;;;;;6.87;3.90;;;11.70;98.40;;;;;;964232;144;28085;-75
2023/09/26 01:58:46;;;;;;;3.60;3.37;;;11.70;98.50;;;;;;965457;144;27333;-74
2023/09/26 02:01:12;;;;;;;3.93;3.63;;;11.70;98.50;;;;;;964871;144;27338;-75
2023/09/26 02:03:39;;;;;;;3.83;3.53;;;11.70;98.60;;;;;;964082;143;27419;-75
2023/09/26 02:06:05;;;;;;;4.20;3.27;;;11.70;98.60;;;;;;965685;144;27314;-77
2023/09/26 02:08:32;;;;;;;4.47;4.07;;;11.80;98.60;;;;;;967484;144;27382;-75
2023/09/26 02:10:59;;;;;;;7.13;6.53;;;11.70;98.60;;;;;;965437;144;27334;-78
2023/09/26 02:13:25;;;;;;;4.80;4.20;;;11.70;98.70;;;;;;965176;144;27353;-75
2023/09/26 02:15:52;;;;;;;4.87;3.90;;;11.70;98.80;;;;;;965200;144;27414;-73
2023/09/26 02:18:18;;;;;;;3.43;3.17;;;11.70;98.90;;;;;;964645;144;28031;-74
2023/09/26 02:20:45;;;;;;;4.00;3.60;;;11.70;98.90;;;;;;965690;144;27400;-74
2023/09/26 02:23:11;;;;;;;3.70;3.50;;;11.70;99.10;;;;;;966407;144;28313;-75
2023/09/26 02:25:38;;;;;;;3.87;3.57;;;11.70;99.10;;;;;;964787;144;27340;-76
2023/09/26 02:28:05;;;;;;;3.70;3.40;;;11.70;99.20;;;;;;965072;144;27318;-77
2023/09/26 02:30:31;;;;;;;3.27;2.80;;;11.60;99.30;;;;;;966473;144;27285;-77
2023/09/26 02:32:58;;;;;;;3.27;2.90;;;11.60;99.20;;;;;;965470;144;27358;-77
2023/09/26 02:35:24;;;;;;;3.27;3.03;;;11.60;99.20;;;;;;966200;144;27329;-77
2023/09/26 02:37:51;;;;;;;3.50;3.20;;;11.60;99.20;;;;;;964004;144;27317;-77
2023/09/26 02:40:18;;;;;;;3.17;2.90;;;11.50;99.10;;;;;;966873;144;28355;-77
2023/09/26 02:42:44;;;;;;;4.40;3.80;;;11.60;98.90;;;;;;965524;144;27459;-77
2023/09/26 02:45:11;;;;;;;4.93;3.00;;;11.50;98.80;;;;;;964660;144;27444;-77
2023/09/26 02:47:37;;;;;;;3.40;3.13;;;11.50;98.80;;;;;;966404;144;27431;-77
2023/09/26 02:50:04;;;;;;;3.40;3.10;;;11.40;98.70;;;;;;964795;144;27299;-77
2023/09/26 02:52:30;;;;;;;4.07;3.47;;;11.40;98.70;;;;;;965252;144;27753;-77
2023/09/26 02:54:58;;;;;;;3.80;3.47;;;11.40;98.90;;;;;;965590;144;27315;-77
2023/09/26 02:57:24;;;;;;;4.30;3.27;;;11.30;99.10;;;;;;964565;144;28083;-77
2023/09/26 02:59:50;;;;;;;4.03;3.63;;;11.30;99.30;;;;;;965960;144;27295;-77
2023/09/26 03:02:17;;;;;;;3.93;3.40;;;11.30;99.40;;;;;;964942;144;27307;-77
2023/09/26 03:04:43;;;;;;;3.50;3.20;;;11.20;99.50;;;;;;964038;144;27315;-77
2023/09/26 03:07:10;;;;;;;3.27;3.07;;;11.20;99.50;;;;;;964797;144;27322;-77
2023/09/26 03:09:37;;;;;;;2.77;2.57;;;11.20;99.40;;;;;;964851;144;27307;-77
2023/09/26 03:12:03;;;;;;;3.93;2.77;;;11.20;99.40;;;;;;966069;144;27362;-77
2023/09/26 03:14:30;;;;;;;2.90;2.70;;;11.10;99.40;;;;;;965038;144;27266;-77
2023/09/26 03:16:56;;;;;;;2.97;2.77;;;11.10;99.40;;;;;;964834;144;27486;-77
2023/09/26 03:19:23;;;;;;;3.07;2.77;;;11.10;99.30;;;;;;965889;144;27341;-77
2023/09/26 03:21:52;;;;;;;3.37;3.07;;;11.00;99.20;;;;;;967285;144;27312;-77
2023/09/26 03:24:16;;;;;;;3.20;2.90;;;11.00;99.20;;;;;;963362;144;27332;-77
2023/09/26 03:26:43;;;;;;;3.17;2.90;;;11.00;99.40;;;;;;965438;144;27410;-77
2023/09/26 03:29:09;;;;;;;3.10;2.90;;;10.90;99.30;;;;;;966149;144;27327;-77
2023/09/26 03:31:36;;;;;;;4.40;2.80;;;10.90;99.50;;;;;;964261;144;27737;-77
2023/09/26 03:34:03;;;;;;;3.10;2.87;;;10.80;99.70;;;;;;956806;144;28107;-77
2023/09/26 03:36:29;;;;;;;3.10;2.80;;;10.80;99.80;;;;;;946281;145;27305;-76
2023/09/26 03:38:56;;;;;;;3.20;3.00;;;10.80;99.90;;;;;;946615;145;27306;-76
2023/09/26 03:41:22;;;;;;;3.43;3.00;;;10.70;99.90;;;;;;946311;145;27339;-76
2023/09/26 03:43:49;;;;;;;3.43;3.03;;;10.70;99.90;;;;;;946589;145;27257;-76
2023/09/26 03:46:15;;;;;;;2.90;2.70;;;10.70;99.90;;;;;;948646;145;27417;-76
2023/09/26 03:48:42;;;;;;;3.20;2.90;;;10.70;99.90;;;;;;944921;145;27441;-77
2023/09/26 03:51:11;;;;;;;2.80;2.60;;;10.60;99.90;;;;;;947511;145;27750;-76
2023/09/26 03:53:38;;;;;;;2.80;2.60;;;10.60;99.90;;;;;;945994;145;27355;-76
2023/09/26 03:56:05;;;;;;;2.93;2.73;;;10.60;99.90;;;;;;946331;145;27330;-77
2023/09/26 03:58:31;;;;;;;2.80;2.60;;;10.60;99.90;;;;;;946939;145;27292;-77
2023/09/26 04:01:10;;;;;;;3.07;2.77;;;10.60;99.90;;;;;;945889;145;27433;-76
2023/09/26 04:03:37;;;;;;;3.43;2.87;;;10.60;99.90;;;;;;945372;145;27316;-76
2023/09/26 04:06:03;;;;;;;2.83;2.63;;;10.60;99.90;;;;;;946632;145;27296;-76
2023/09/26 04:08:30;;;;;;;3.00;2.80;;;10.60;99.90;;;;;;947503;145;27944;-76
2023/09/26 04:10:56;;;;;;;2.97;2.67;;;10.60;99.90;;;;;;946508;145;27305;-75
2023/09/26 04:13:23;;;;;;;3.13;2.83;;;10.60;99.90;;;;;;948423;145;27485;-76
2023/09/26 04:15:50;;;;;;;2.67;2.47;;;10.60;99.90;;;;;;945693;145;27376;-76
2023/09/26 04:18:16;;;;;;;2.90;2.70;;;10.60;99.90;;;;;;945828;145;27413;-76
2023/09/26 04:20:43;;;;;;;2.87;2.53;;;10.60;99.90;;;;;;946756;145;27328;-76
2023/09/26 04:23:09;;;;;;;4.30;2.90;;;10.60;99.90;;;;;;944893;145;27305;-76
2023/09/26 04:25:36;;;;;;;3.37;3.13;;;10.60;99.90;;;;;;946769;145;27343;-76
2023/09/26 04:28:03;;;;;;;2.80;2.60;;;10.60;99.90;;;;;;945717;145;27396;-76
2023/09/26 04:30:30;;;;;;;3.00;2.80;;;10.60;99.90;;;;;;945849;145;27344;-75
2023/09/26 04:32:56;;;;;;;3.70;3.40;;;10.60;99.90;;;;;;947472;145;27437;-75
2023/09/26 04:35:22;;;;;;;3.53;3.00;;;10.60;99.90;;;;;;957875;144;27897;-75
2023/09/26 04:37:49;;;;;;;3.80;3.50;;;10.60;99.90;;;;;;967487;144;27222;-75
2023/09/26 04:40:17;;;;;;;3.07;2.87;;;10.60;99.90;;;;;;968018;144;27310;-76
2023/09/26 04:42:43;;;;;;;2.80;2.60;;;10.60;99.90;;;;;;964858;144;27419;-76
2023/09/26 04:45:09;;;;;;;3.33;3.13;;;10.60;99.90;;;;;;965865;144;27287;-76
2023/09/26 04:47:38;;;;;;;4.37;3.37;;;10.60;99.90;;;;;;966222;144;27282;-75
2023/09/26 04:50:06;;;;;;;3.33;3.03;;;10.60;99.90;;;;;;965383;144;27267;-74
2023/09/26 04:52:31;;;;;;;3.57;3.27;;;10.50;99.90;;;;;;965583;144;27346;-77
2023/09/26 04:54:58;;;;;;;4.00;3.70;;;10.60;99.90;;;;;;966254;144;27330;-75
2023/09/26 04:57:25;;;;;;;4.40;3.47;;;10.60;99.90;;;;;;964652;144;27375;-77
2023/09/26 04:59:51;;;;;;;3.80;3.50;;;10.60;99.90;;;;;;964649;144;27398;-74
2023/09/26 05:02:18;;;;;;;3.33;3.13;;;10.60;99.90;;;;;;965392;144;27350;-74
2023/09/26 05:04:45;;;;;;;4.40;3.93;;;10.60;99.90;;;;;;965080;144;27314;-73
2023/09/26 05:07:11;;;;;;;3.70;3.40;;;10.60;99.90;;;;;;964693;144;27358;-74
2023/09/26 05:09:38;;;;;;;3.83;3.53;;;10.60;99.90;;;;;;965458;144;27475;-74
2023/09/26 05:12:04;;;;;;;3.63;3.17;;;10.60;99.90;;;;;;966159;144;27330;-75
2023/09/26 05:14:31;;;;;;;3.10;2.90;;;10.60;99.90;;;;;;967565;144;27321;-77
2023/09/26 05:16:57;;;;;;;3.37;3.07;;;10.60;99.90;;;;;;965483;144;27291;-74
2023/09/26 05:19:24;;;;;;;5.73;3.70;;;10.60;99.90;;;;;;964383;144;27320;-74
2023/09/26 05:21:50;;;;;;;4.93;3.40;;;10.60;99.90;;;;;;964758;144;27311;-76
2023/09/26 05:24:17;;;;;;;4.30;4.00;;;10.60;99.90;;;;;;968056;144;27338;-75
2023/09/26 05:26:44;;;;;;;5.13;3.77;;;10.70;99.90;;;;;;965176;144;27243;-75
2023/09/26 05:29:10;;;;;;;3.90;3.60;;;10.70;99.90;;;;;;967095;144;27321;-77
2023/09/26 05:31:37;;;;;;;4.10;3.70;;;10.70;99.90;;;;;;942756;147;27463;-74
2023/09/26 05:34:03;;;;;;;5.43;4.93;;;10.70;99.90;;;;;;940314;147;27341;-74
2023/09/26 05:36:32;;;;;;;10.47;9.47;;;10.70;99.90;;;;;;947583;148;27307;-74
2023/09/26 05:38:57;;;;;;;9.87;8.87;;;10.70;99.90;;;;;;938207;147;27456;-74
2023/09/26 05:41:23;;;;;;;9.03;8.27;;;10.80;99.90;;;;;;940361;147;27693;-75
2023/09/26 05:43:50;;;;;;;10.30;8.33;;;10.90;99.90;;;;;;925617;150;27500;-74
2023/09/26 05:46:16;;;;;;;6.40;5.70;;;11.10;99.90;;;;;;930008;149;27376;-75
2023/09/26 05:48:43;;;;;;;5.83;5.30;;;11.30;99.90;;;;;;922217;150;27448;-75
2023/09/26 05:51:09;;;;;;;7.20;6.60;;;11.60;99.90;;;;;;949416;145;27364;-76
2023/09/26 05:53:36;;;;;;;5.93;5.07;;;12.00;99.90;;;;;;946775;145;27453;-74
2023/09/26 05:56:03;;;;;;;5.57;5.07;;;12.40;99.90;;;;;;948922;145;27308;-76
2023/09/26 05:58:29;;;;;;;6.67;4.60;;;12.80;99.90;;;;;;946847;145;27280;-76
2023/09/26 06:00:59;;;;;;;4.42;3.72;;;13.20;99.90;;;;;;947152;145;28064;-76
2023/09/26 06:03:25;;;;;;;4.70;3.83;;;13.70;99.90;;;;;;945392;145;27338;-76
2023/09/26 06:05:52;;;;;;;3.35;3.05;;;14.20;99.90;;;;;;948699;145;27340;-76
2023/09/26 06:08:18;;;;;;;3.90;3.60;;;14.80;99.90;;;;;;946463;146;27440;-76
2023/09/26 06:10:45;;;;;;;4.72;3.00;;;15.30;99.90;;;;;;946154;145;27460;-76
2023/09/26 06:13:13;;;;;;;3.45;3.20;;;15.90;99.90;;;;;;945066;145;27297;-76
2023/09/26 06:15:38;;;;;;;5.67;3.27;;;16.50;99.90;;;;;;946323;145;27284;-76
2023/09/26 06:18:04;;;;;;;3.62;3.33;;;17.10;99.90;;;;;;945778;146;27275;-76
2023/09/26 06:20:31;;;;;;;3.90;3.60;;;17.70;99.90;;;;;;945823;145;27430;-76
2023/09/26 06:22:58;;;;;;;4.17;3.77;;;18.30;99.90;;;;;;946284;145;27328;-76
2023/09/26 06:25:24;;;;;;;3.25;3.05;;;18.90;99.90;;;;;;948872;145;27248;-76
2023/09/26 06:27:51;;;;;;;3.50;3.20;;;19.60;99.90;;;;;;945338;145;27368;-76
2023/09/26 06:30:17;;;;;;;3.20;2.90;;;20.20;98.30;;;;;;947513;145;27337;-76
2023/09/26 06:32:44;;;;;;;3.02;2.83;;;20.80;96.70;;;;;;945653;145;27358;-76
2023/09/26 06:35:11;;;;;;;2.72;2.47;;;21.40;94.30;;;;;;946620;145;27399;-76
2023/09/26 06:37:37;;;;;;;2.87;2.60;;;22.10;92.20;;;;;;950158;146;27392;-76
2023/09/26 06:40:06;;;;;;;2.85;2.65;;;22.70;90.40;;;;;;950479;146;27328;-76
2023/09/26 06:42:33;;;;;;;2.35;2.20;;;23.30;86.90;;;;;;949468;149;27967;-76
2023/09/26 06:45:00;;;;;;;3.80;2.42;;;23.90;83.80;;;;;;950012;146;27265;-76
2023/09/26 06:47:26;;;;;;;3.52;2.52;;;24.50;81.10;;;;;;951410;146;27421;-76
2023/09/26 06:49:53;;;;;;;2.50;2.30;;;25.10;78.50;;;;;;949733;146;27385;-76
2023/09/26 06:52:22;;;;;;;2.77;2.30;;;25.60;76.20;;;;;;950228;146;27291;-76
2023/09/26 06:54:46;;;;;;;3.08;2.30;;;26.10;73.60;;;;;;949985;146;27396;-76
2023/09/26 06:57:17;;;;;;;2.00;1.90;;;26.60;71.50;;;;;;952179;146;27417;-76
2023/09/26 06:59:39;;;;;;;2.70;2.50;;;27.00;69.90;;;;;;951435;146;27389;-76
2023/09/26 07:02:08;;;;;;;2.42;2.22;;;27.40;68.40;;;;;;951746;146;27303;-76
2023/09/26 07:04:32;;;;;;;2.30;2.10;;;27.80;67.30;;;;;;950438;146;27344;-77
2023/09/26 07:07:00;;;;;;;2.00;1.90;;;28.20;65.80;;;;;;950845;146;27333;-76
2023/09/26 07:09:26;;;;;;;2.42;2.27;;;28.50;64.60;;;;;;950832;147;27490;-77
2023/09/26 07:11:52;;;;;;;2.45;2.25;;;28.90;63.70;;;;;;951846;146;27367;-77
2023/09/26 07:14:19;;;;;;;2.00;1.87;;;29.30;63.10;;;;;;951885;146;27322;-77
2023/09/26 07:16:46;;;;;;;2.62;2.20;;;29.70;62.20;;;;;;952250;146;27299;-77
2023/09/26 07:19:12;;;;;;;1.75;1.65;;;30.10;61.50;;;;;;950384;146;27293;-77
2023/09/26 07:21:38;;;;;;;2.27;2.08;;;30.50;60.60;;;;;;950792;146;27252;-77
2023/09/26 07:24:05;;;;;;;2.10;2.00;;;31.00;59.70;;;;;;950054;147;27746;-77
2023/09/26 07:26:33;;;;;;;2.90;2.30;;;31.40;59.00;;;;;;950445;146;27305;-77
2023/09/26 07:28:58;;;;;;;3.52;2.08;;;31.80;58.40;;;;;;950600;146;28082;-77
2023/09/26 07:31:25;;;;;;;2.30;2.10;;;32.10;57.00;;;;;;951358;146;27398;-77
2023/09/26 07:33:51;;;;;;;2.17;2.08;;;32.40;56.30;;;;;;951566;146;27472;-77
2023/09/26 07:36:18;;;;;;;2.65;2.02;;;32.60;56.20;;;;;;950521;146;27481;-77
2023/09/26 07:38:45;;;;;;;2.02;1.80;;;32.90;55.40;;;;;;952416;146;27413;-77
2023/09/26 07:41:12;;;;;;;2.65;2.17;;;33.20;54.80;;;;;;951593;146;27408;-77
2023/09/26 07:43:38;;;;;;;3.00;2.52;;;33.40;54.00;;;;;;951336;146;27352;-77
2023/09/26 07:46:07;;;;;;;3.15;2.60;;;33.60;53.40;;;;;;952451;146;27354;-77
2023/09/26 07:48:34;;;;;;;3.27;2.25;;;33.80;53.00;;;;;;952492;146;27397;-77
2023/09/26 07:51:00;;;;;;;2.50;2.30;;;34.00;52.70;;;;;;950360;146;26197;-77
2023/09/26 07:53:27;;;;;;;2.80;2.60;;;34.20;52.00;;;;;;951153;146;27278;-77
2023/09/26 07:55:56;;;;;;;2.60;2.40;;;34.40;51.70;;;;;;950335;146;26208;-77
2023/09/26 07:58:23;;;;;;;2.35;2.15;;;34.50;51.30;;;;;;950811;146;27308;-77
2023/09/26 08:00:49;;;;;;;4.33;2.10;;;34.70;51.00;;;;;;951532;148;26227;-75
2023/09/26 08:03:16;;;;;;;2.40;2.20;;;34.90;50.80;;;;;;950230;148;26241;-75
2023/09/26 08:05:42;;;;;;;1.70;1.60;;;35.20;50.40;;;;;;950049;149;26249;-75
2023/09/26 08:08:09;;;;;;;6.50;2.00;;;35.40;50.00;;;;;;950908;146;26673;-75
2023/09/26 08:10:39;;;;;;;1.90;1.80;;;35.60;49.60;;;;;;949920;148;26289;-75
2023/09/26 08:13:05;;;;;;;2.37;2.00;;;35.90;49.30;;;;;;950883;149;26257;-75
2023/09/26 08:15:32;;;;;;;3.58;1.70;;;36.10;48.70;;;;;;951635;146;26197;-75
2023/09/26 08:17:59;;;;;;;3.08;1.80;;;36.30;48.20;;;;;;951221;146;26213;-77
2023/09/26 08:20:25;;;;;;;2.85;1.92;;;36.60;47.90;;;;;;954076;146;26316;-78
2023/09/26 08:22:52;;;;;;;2.47;1.60;;;36.80;47.40;;;;;;950529;146;26310;-77
2023/09/26 08:25:18;;;;;;;2.05;1.85;;;37.00;46.70;;;;;;952423;146;26224;-78
2023/09/26 08:27:45;;;;;;;2.47;1.65;;;37.10;46.40;;;;;;950471;146;26298;-77
2023/09/26 08:30:11;;;;;;;2.00;1.90;;;37.20;46.30;;;;;;950720;146;26244;-78
2023/09/26 08:32:41;;;;;;;1.77;1.67;;;37.50;46.00;;;;;;951800;149;26370;-77
2023/09/26 08:35:08;;;;;;;4.12;1.95;;;37.60;45.40;;;;;;953133;146;26343;-76
2023/09/26 08:37:34;;;;;;;1.50;1.40;;;37.80;44.80;;;;;;948581;145;26281;-78
2023/09/26 08:40:01;;;;;;;3.90;1.77;;;37.90;44.60;;;;;;947445;145;26314;-78
2023/09/26 08:42:27;;;;;;;2.12;1.72;;;38.00;44.30;;;;;;947349;145;26365;-78
2023/09/26 08:44:54;;;;;;;2.52;1.55;;;38.10;44.00;;;;;;947754;145;26241;-78
2023/09/26 08:47:24;;;;;;;1.90;1.80;;;38.20;44.00;;;;;;944984;145;26299;-78
2023/09/26 08:49:53;;;;;;;1.77;1.67;;;38.30;43.60;;;;;;946750;145;26190;-78
2023/09/26 08:52:19;;;;;;;2.02;1.90;;;38.40;43.10;;;;;;947030;145;26259;-78
2023/09/26 08:54:46;;;;;;;4.35;2.00;;;38.50;42.60;;;;;;947159;145;26245;-78
2023/09/26 08:57:13;;;;;;;3.62;1.90;;;38.50;42.40;;;;;;945660;145;26217;-76
2023/09/26 08:59:39;;;;;;;3.42;2.20;;;38.50;42.20;;;;;;948229;145;26342;-78
2023/09/26 09:02:06;;;;;;;2.75;1.67;;;38.50;42.00;;;;;;945550;145;26231;-76
2023/09/26 09:04:32;;;;;;;4.17;1.90;;;38.50;41.90;;;;;;945757;145;26245;-75
2023/09/26 09:07:05;;;;;;;2.02;1.50;;;38.60;41.90;;;;;;947262;145;26321;-79
2023/09/26 09:09:28;;;;;;;2.70;1.82;;;38.60;41.60;;;;;;945229;145;26297;-78
2023/09/26 09:11:55;;;;;;;6.62;1.82;;;38.60;41.30;;;;;;947065;145;26230;-79
2023/09/26 09:14:30;;;;;;;2.90;1.82;;;38.50;41.00;;;;;;946360;145;26653;-78
2023/09/26 09:16:57;;;;;;;2.92;2.20;;;38.50;41.00;;;;;;947462;145;26245;-79
2023/09/26 09:19:23;;;;;;;2.47;1.62;;;38.50;41.10;;;;;;945689;145;26330;-79
2023/09/26 09:21:50;;;;;;;2.02;1.80;;;38.50;41.00;;;;;;941934;145;26250;-77
2023/09/26 09:24:17;;;;;;;1.87;1.47;;;38.40;40.60;;;;;;946365;145;26217;-78
2023/09/26 09:26:43;;;;;;;2.10;1.72;;;38.40;40.70;;;;;;946826;145;26264;-75
2023/09/26 09:29:19;;;;;;;2.08;1.52;;;38.30;40.50;;;;;;945397;145;26261;-75
2023/09/26 09:31:46;;;;;;;3.12;1.65;;;38.20;40.30;;;;;;948545;145;26374;-75
2023/09/26 09:34:12;;;;;;;2.05;1.77;;;38.10;40.00;;;;;;947078;145;26233;-75
2023/09/26 09:36:39;;;;;;;2.65;1.92;;;37.90;39.90;;;;;;946784;145;26335;-75
2023/09/26 09:39:07;;;;;;;1.92;1.70;;;37.70;39.90;;;;;;955615;145;26367;-75
2023/09/26 09:41:32;;;;;;;4.17;1.70;;;37.30;39.60;;;;;;959545;145;26153;-75
2023/09/26 09:43:59;;;;;;;3.17;1.85;;;36.90;39.80;;;;;;958473;145;26673;-75
2023/09/26 09:46:25;;;;;;;3.25;1.50;;;36.50;40.10;;;;;;957989;145;26349;-75
2023/09/26 09:48:52;;;;;;;1.60;1.32;;;36.10;40.30;;;;;;959666;145;26179;-75
2023/09/26 09:51:18;;;;;;;2.12;1.92;;;35.80;40.50;;;;;;957875;145;26305;-75
2023/09/26 09:53:45;;;;;;;2.92;1.72;;;35.50;40.60;;;;;;958978;145;26256;-75
2023/09/26 09:58:44;;;;;;;2.95;2.00;;;35.20;40.90;;;;;;967050;145;37192;-75
2023/09/26 10:01:08;;;;;;;1.95;1.65;;;34.60;41.00;;;;;;950738;147;26207;-75
2023/09/26 10:03:35;;;;;;;2.35;1.50;;;34.30;40.80;;;;;;952272;147;27316;-75
2023/09/26 10:06:02;;;;;;;3.77;2.10;;;34.00;41.20;;;;;;953155;148;27345;-75
2023/09/26 10:08:28;;;;;;;2.15;1.70;;;33.70;41.40;;;;;;950571;147;27397;-76
2023/09/26 10:10:54;;;;;;;2.30;1.65;;;33.40;41.50;;;;;;937641;150;27366;-75
2023/09/26 10:13:21;;;;;;;1.70;1.60;;;33.10;41.70;;;;;;937547;150;27453;-75
2023/09/26 10:16:06;;;;;;;2.20;1.85;;;32.80;41.90;;;;;;937567;150;27350;-76
2023/09/26 10:18:35;;;;;;;2.02;1.62;;;32.50;42.00;;;;;;936953;151;27462;-75
2023/09/26 10:21:02;;;;;;;1.80;1.70;;;32.20;42.30;;;;;;936978;150;27411;-75
2023/09/26 10:23:29;;;;;;;2.45;1.80;;;31.80;42.60;;;;;;936277;150;27390;-75
2023/09/26 10:25:55;;;;;;;1.60;1.50;;;31.50;42.60;;;;;;935256;152;27422;-75
2023/09/26 10:28:22;;;;;;;2.87;1.65;;;31.30;42.80;;;;;;935568;150;28101;-75
2023/09/26 10:30:48;;;;;;;2.00;1.90;;;31.00;43.20;;;;;;937356;151;27986;-75
2023/09/26 10:33:15;;;;;;;1.65;1.55;;;30.70;43.30;;;;;;936562;151;27461;-75
2023/09/26 10:35:44;;;;;;;1.60;1.50;;;30.40;43.60;;;;;;934634;150;27319;-75
2023/09/26 10:38:12;;;;;;;1.98;1.70;;;30.20;43.80;;;;;;937460;150;27391;-75
2023/09/26 10:40:37;;;;;;;1.60;1.50;;;29.90;44.10;;;;;;938384;150;27443;-76
2023/09/26 10:43:04;;;;;;;2.15;1.72;;;29.70;44.40;;;;;;937588;150;27303;-75
2023/09/26 10:45:31;;;;;;;1.92;1.80;;;29.50;44.80;;;;;;938846;150;27471;-76
2023/09/26 10:47:57;;;;;;;2.42;2.02;;;29.30;45.10;;;;;;938965;151;27374;-75
2023/09/26 10:50:24;;;;;;;2.17;1.60;;;29.20;45.60;;;;;;936561;150;27451;-75
2023/09/26 10:52:50;;;;;;;2.47;1.67;;;29.00;45.70;;;;;;936343;150;27299;-75
2023/09/26 10:55:17;;;;;;;1.90;1.80;;;28.90;46.00;;;;;;937783;150;27267;-75
2023/09/26 10:57:44;;;;;;;1.95;1.72;;;28.80;46.00;;;;;;934210;152;28540;-75
2023/09/26 11:00:11;;;;;;;1.72;1.62;;;28.70;46.30;;;;;;926634;152;27348;-75
2023/09/26 11:02:37;;;;;;;2.08;1.98;;;28.70;46.60;;;;;;926224;152;27406;-76
2023/09/26 11:05:09;;;;;;;3.65;1.70;;;28.60;46.70;;;;;;926556;152;27352;-76
2023/09/26 11:07:36;;;;;;;1.50;1.40;;;28.50;46.70;;;;;;926113;151;27364;-76
2023/09/26 11:10:03;;;;;;;4.22;2.08;;;28.50;46.90;;;;;;926100;154;27427;-76
2023/09/26 11:12:29;;;;;;;1.55;1.45;;;28.40;47.10;;;;;;925987;152;27373;-76
2023/09/26 11:14:56;;;;;;;2.08;1.40;;;28.30;47.00;;;;;;925810;152;27385;-75
2023/09/26 11:17:23;;;;;;;4.00;2.00;;;28.20;47.00;;;;;;926390;152;27381;-75
2023/09/26 11:19:49;;;;;;;2.85;1.60;;;28.10;47.20;;;;;;924546;152;27375;-79
2023/09/26 11:22:15;;;;;;;2.55;1.60;;;28.00;47.50;;;;;;925590;152;27333;-79
2023/09/26 11:24:42;;;;;;;1.60;1.50;;;27.90;47.70;;;;;;925715;152;27344;-80
2023/09/26 11:27:09;;;;;;;3.52;2.30;;;27.80;47.90;;;;;;926154;154;27375;-78
2023/09/26 11:29:35;;;;;;;1.70;1.60;;;27.70;48.20;;;;;;924996;151;27340;-79
2023/09/26 11:32:03;;;;;;;2.10;1.70;;;27.70;48.30;;;;;;926307;151;27333;-79
2023/09/26 11:34:28;;;;;;;2.67;1.60;;;27.70;48.40;;;;;;925659;151;27414;-76
2023/09/26 11:36:55;;;;;;;1.80;1.70;;;27.70;48.50;;;;;;925952;152;27422;-80
2023/09/26 11:39:21;;;;;;;1.70;1.60;;;27.60;48.50;;;;;;925367;152;27701;-77
2023/09/26 11:42:06;;;;;;;1.80;1.65;;;27.60;48.60;;;;;;926010;154;27421;-76
2023/09/26 11:44:32;;;;;;;2.20;1.55;;;27.50;48.70;;;;;;924808;151;27810;-79
2023/09/26 11:46:59;;;;;;;3.20;1.40;;;27.50;48.80;;;;;;926391;151;27388;-75
2023/09/26 11:49:26;;;;;;;1.98;1.65;;;27.40;49.00;;;;;;925948;152;27381;-75
2023/09/26 11:51:52;;;;;;;1.67;1.57;;;27.30;49.10;;;;;;925233;151;27357;-75
2023/09/26 11:54:19;;;;;;;1.60;1.50;;;27.40;49.30;;;;;;925614;151;27360;-76
2023/09/26 11:56:45;;;;;;;1.67;1.57;;;27.30;49.30;;;;;;926120;152;27403;-75
2023/09/26 11:59:12;;;;;;;1.60;1.50;;;27.30;49.30;;;;;;935843;150;27462;-76
2023/09/26 12:01:41;;;;;;;2.80;1.62;;;27.30;49.30;;;;;;942773;151;27339;-76
2023/09/26 12:04:05;;;;;;;2.05;1.70;;;27.30;49.30;;;;;;919823;151;27450;-76
2023/09/26 12:06:32;;;;;;;1.52;1.42;;;27.30;49.40;;;;;;933570;151;28348;-75
2023/09/26 12:08:58;;;;;;;2.52;1.60;;;27.20;49.40;;;;;;933836;151;27394;-75
2023/09/26 12:11:25;;;;;;;1.55;1.42;;;27.20;49.50;;;;;;935995;148;27361;-75
2023/09/26 12:13:51;;;;;;;1.92;1.55;;;27.10;49.70;;;;;;932858;151;27346;-75
2023/09/26 12:16:18;;;;;;;2.17;1.82;;;27.20;49.80;;;;;;932465;151;27371;-75
2023/09/26 12:18:45;;;;;;;1.92;1.70;;;27.10;50.00;;;;;;933779;151;27379;-76
2023/09/26 12:21:11;;;;;;;1.57;1.47;;;27.10;50.00;;;;;;913659;151;27825;-75
2023/09/26 12:23:38;;;;;;;1.82;1.72;;;27.10;50.20;;;;;;919557;151;27423;-75
2023/09/26 12:26:05;;;;;;;1.87;1.75;;;27.10;50.20;;;;;;919322;151;27951;-75
2023/09/26 12:28:31;;;;;;;1.62;1.52;;;27.10;50.30;;;;;;921094;151;27400;-76
2023/09/26 12:30:58;;;;;;;2.12;1.60;;;27.10;50.40;;;;;;937368;148;27354;-75
2023/09/26 12:33:25;;;;;;;3.12;2.10;;;27.10;50.40;;;;;;936561;148;27446;-75
2023/09/26 12:35:51;;;;;;;1.70;1.60;;;27.10;50.40;;;;;;936190;148;27303;-75
2023/09/26 12:38:17;;;;;;;2.47;1.82;;;27.10;50.50;;;;;;936617;148;27263;-76
2023/09/26 12:40:44;;;;;;;1.87;1.60;;;27.10;50.50;;;;;;936175;148;27352;-75
2023/09/26 12:43:11;;;;;;;2.05;1.50;;;27.10;50.60;;;;;;922140;151;27382;-76
2023/09/26 12:45:37;;;;;;;1.87;1.55;;;27.10;50.60;;;;;;920812;151;27783;-75
2023/09/26 12:48:04;;;;;;;1.70;1.60;;;27.20;50.60;;;;;;933707;151;27392;-75